createdAt,value
2023-05-14T00:02:17.598Z,9.70
2023-05-14T00:04:46.096Z,9.72
2023-05-14T00:07:14.490Z,9.74
2023-05-14T00:09:42.871Z,9.76
2023-05-14T00:12:11.335Z,9.76
2023-05-14T00:14:39.720Z,9.76
2023-05-14T00:17:08.720Z,9.76
2023-05-14T00:19:37.167Z,9.76
2023-05-14T00:22:05.816Z,9.74
2023-05-14T00:24:34.997Z,9.72
2023-05-14T00:27:04.224Z,9.70
2023-05-14T00:29:32.716Z,9.65
2023-05-14T00:32:01.256Z,9.62
2023-05-14T00:34:29.666Z,9.61
2023-05-14T00:36:58.144Z,9.61
2023-05-14T00:39:26.463Z,9.62
2023-05-14T00:41:54.913Z,9.62
2023-05-14T00:44:23.381Z,9.62
2023-05-14T00:46:52.625Z,9.61
2023-05-14T00:49:21.500Z,9.61
2023-05-14T00:51:49.940Z,9.61
2023-05-14T00:54:18.540Z,9.61
2023-05-14T00:56:47.638Z,9.57
2023-05-14T00:59:16.035Z,9.52
2023-05-14T01:01:44.672Z,9.50
2023-05-14T01:04:13.401Z,9.50
2023-05-14T01:06:52.276Z,9.50
2023-05-14T01:09:54.089Z,9.49
2023-05-14T01:12:37.346Z,9.47
2023-05-14T01:15:11.330Z,9.44
2023-05-14T01:17:49.357Z,9.41
2023-05-14T01:20:18.196Z,9.39
2023-05-14T01:22:46.540Z,9.38
2023-05-14T01:25:15.444Z,9.37
2023-05-14T01:28:19.452Z,9.35
2023-05-14T01:31:01.181Z,9.33
2023-05-14T01:33:31.956Z,9.33
2023-05-14T01:36:00.996Z,9.28
2023-05-14T01:38:34.322Z,9.25
2023-05-14T01:41:03.617Z,9.14
2023-05-14T01:43:32.581Z,9.06
2023-05-14T01:46:01.193Z,9.01
2023-05-14T01:48:30.492Z,8.98
2023-05-14T01:50:58.881Z,8.93
2023-05-14T01:53:27.428Z,8.89
2023-05-14T01:55:55.875Z,8.87
2023-05-14T01:58:24.260Z,8.87
2023-05-14T02:00:52.636Z,8.86
2023-05-14T02:03:20.974Z,8.83
2023-05-14T02:05:49.410Z,8.81
2023-05-14T02:08:17.716Z,8.80
2023-05-14T02:10:46.163Z,8.80
2023-05-14T02:13:14.715Z,8.77
2023-05-14T02:15:43.275Z,8.75
2023-05-14T02:18:11.808Z,8.73
2023-05-14T02:20:40.411Z,8.72
2023-05-14T02:23:08.740Z,8.72
2023-05-14T02:25:37.986Z,8.73
2023-05-14T02:28:06.407Z,8.72
2023-05-14T02:30:34.826Z,8.70
2023-05-14T02:33:03.404Z,8.74
2023-05-14T02:35:31.933Z,8.75
2023-05-14T02:38:00.352Z,8.76
2023-05-14T02:40:28.803Z,8.76
2023-05-14T02:42:57.216Z,8.76
2023-05-14T02:45:25.638Z,8.76
2023-05-14T02:47:54.052Z,8.74
2023-05-14T02:50:22.794Z,8.68
2023-05-14T02:52:51.482Z,8.57
2023-05-14T02:55:19.992Z,8.48
2023-05-14T02:57:48.450Z,8.42
2023-05-14T03:00:17.051Z,8.38
2023-05-14T03:02:45.920Z,8.38
2023-05-14T03:05:14.835Z,8.39
2023-05-14T03:07:43.238Z,8.40
2023-05-14T03:10:11.615Z,8.42
2023-05-14T03:12:40.035Z,8.43
2023-05-14T03:15:09.099Z,8.43
2023-05-14T03:17:37.600Z,8.45
2023-05-14T03:20:06.686Z,8.49
2023-05-14T03:22:35.079Z,8.53
2023-05-14T03:25:03.606Z,8.56
2023-05-14T03:27:31.902Z,8.59
2023-05-14T03:30:00.956Z,8.63
2023-05-14T03:32:30.107Z,8.66
2023-05-14T03:34:58.590Z,8.72
2023-05-14T03:37:26.884Z,8.78
2023-05-14T03:39:55.249Z,8.83
2023-05-14T03:42:23.536Z,8.89
2023-05-14T03:44:51.907Z,8.92
2023-05-14T03:47:20.313Z,8.97
2023-05-14T03:49:48.691Z,9.01
2023-05-14T03:52:17.796Z,9.04
2023-05-14T03:54:46.148Z,9.08
2023-05-14T03:57:14.572Z,9.11
2023-05-14T03:59:42.906Z,9.15
2023-05-14T04:02:11.364Z,9.18
2023-05-14T04:04:40.513Z,9.22
2023-05-14T04:07:09.282Z,9.25
2023-05-14T04:09:37.762Z,9.28
2023-05-14T04:12:06.947Z,9.33
2023-05-14T04:14:35.824Z,9.38
2023-05-14T04:17:04.307Z,9.41
2023-05-14T04:19:32.671Z,9.47
2023-05-14T04:22:01.189Z,9.53
2023-05-14T04:24:29.812Z,9.59
2023-05-14T04:26:58.338Z,9.67
2023-05-14T04:29:26.796Z,9.75
2023-05-14T04:31:55.331Z,9.81
2023-05-14T04:34:23.817Z,9.86
2023-05-14T04:36:52.548Z,9.92
2023-05-14T04:39:20.931Z,10.00
2023-05-14T04:41:49.347Z,10.08
2023-05-14T04:44:17.706Z,10.14
2023-05-14T04:46:46.272Z,10.19
2023-05-14T04:49:14.762Z,10.27
2023-05-14T04:51:43.449Z,10.36
2023-05-14T04:54:12.032Z,10.41
2023-05-14T04:56:40.357Z,10.46
2023-05-14T04:59:09.004Z,10.53
2023-05-14T05:01:37.676Z,10.65
2023-05-14T05:04:06.126Z,10.76
2023-05-14T05:06:34.697Z,10.86
2023-05-14T05:09:03.217Z,10.95
2023-05-14T05:11:31.575Z,11.05
2023-05-14T05:14:00.007Z,11.15
2023-05-14T05:16:28.641Z,11.25
2023-05-14T05:18:57.308Z,11.34
2023-05-14T05:21:26.227Z,11.45
2023-05-14T05:23:54.597Z,11.57
2023-05-14T05:26:23.369Z,11.68
2023-05-14T05:28:51.742Z,11.77
2023-05-14T05:31:20.237Z,11.87
2023-05-14T05:33:48.725Z,11.98
2023-05-14T05:36:17.474Z,12.10
2023-05-14T05:38:45.935Z,12.20
2023-05-14T05:41:14.314Z,12.30
2023-05-14T05:43:42.878Z,12.39
2023-05-14T05:46:12.219Z,12.45
2023-05-14T05:48:40.684Z,12.52
2023-05-14T05:51:09.171Z,12.60
2023-05-14T05:53:37.617Z,12.70
2023-05-14T05:56:06.799Z,12.81
2023-05-14T05:58:35.076Z,12.93
2023-05-14T06:01:03.588Z,13.04
2023-05-14T06:03:31.973Z,13.17
2023-05-14T06:06:00.548Z,13.27
2023-05-14T06:08:28.917Z,13.36
2023-05-14T06:10:57.400Z,13.44
2023-05-14T06:13:25.860Z,13.54
2023-05-14T06:15:54.390Z,13.65
2023-05-14T06:18:22.944Z,13.77
2023-05-14T06:20:53.145Z,13.92
2023-05-14T06:23:23.955Z,14.04
2023-05-14T06:25:54.933Z,14.16
2023-05-14T06:28:24.330Z,14.27
2023-05-14T06:30:54.321Z,14.44
2023-05-14T06:33:30.142Z,14.59
2023-05-14T06:36:00.091Z,14.75
2023-05-14T06:38:28.721Z,14.90
2023-05-14T06:40:57.131Z,15.05
2023-05-14T06:43:25.834Z,15.17
2023-05-14T06:45:54.963Z,15.30
2023-05-14T06:48:23.931Z,15.43
2023-05-14T06:50:52.646Z,15.56
2023-05-14T06:53:21.529Z,15.66
2023-05-14T06:55:50.428Z,15.77
2023-05-14T06:58:18.780Z,15.88
2023-05-14T07:00:47.170Z,15.96
2023-05-14T07:03:15.673Z,16.05
2023-05-14T07:05:46.187Z,16.17
2023-05-14T07:08:14.710Z,16.30
2023-05-14T07:10:43.262Z,16.41
2023-05-14T07:13:11.860Z,16.51
2023-05-14T07:15:40.709Z,16.60
2023-05-14T07:18:09.262Z,16.67
2023-05-14T07:20:37.791Z,16.79
2023-05-14T07:23:06.487Z,16.95
2023-05-14T07:25:34.994Z,17.12
2023-05-14T07:28:03.427Z,17.25
2023-05-14T07:30:31.886Z,17.35
2023-05-14T07:33:00.321Z,17.44
2023-05-14T07:35:28.758Z,17.55
2023-05-14T07:37:57.460Z,17.66
2023-05-14T07:40:26.561Z,17.74
2023-05-14T07:42:55.245Z,17.84
2023-05-14T07:45:23.725Z,17.92
2023-05-14T07:47:52.452Z,18.04
2023-05-14T07:50:21.520Z,18.15
2023-05-14T07:52:50.221Z,18.23
2023-05-14T07:55:18.785Z,18.29
2023-05-14T07:57:47.706Z,18.35
2023-05-14T08:00:17.075Z,18.42
2023-05-14T08:02:45.831Z,18.49
2023-05-14T08:05:14.555Z,18.62
2023-05-14T08:07:43.648Z,18.77
2023-05-14T08:10:12.372Z,18.92
2023-05-14T08:12:40.900Z,18.95
2023-05-14T08:15:09.867Z,18.87
2023-05-14T08:17:38.382Z,18.87
2023-05-14T08:20:07.845Z,18.97
2023-05-14T08:22:36.242Z,19.08
2023-05-14T08:25:06.340Z,19.19
2023-05-14T08:27:34.823Z,19.28
2023-05-14T08:30:03.674Z,19.32
2023-05-14T08:32:32.178Z,19.42
2023-05-14T08:35:00.723Z,19.57
2023-05-14T08:37:29.305Z,19.73
2023-05-14T08:39:57.687Z,19.91
2023-05-14T08:42:29.046Z,19.94
2023-05-14T08:45:02.522Z,19.99
2023-05-14T08:47:34.308Z,20.08
2023-05-14T08:50:08.629Z,20.19
2023-05-14T08:52:37.838Z,20.28
2023-05-14T08:55:07.136Z,20.30
2023-05-14T08:57:35.990Z,20.25
2023-05-14T09:00:14.567Z,20.28
2023-05-14T09:02:45.298Z,20.39
2023-05-14T09:05:15.476Z,20.53
2023-05-14T09:07:44.078Z,20.66
2023-05-14T09:10:12.644Z,20.88
2023-05-14T09:12:41.404Z,21.11
2023-05-14T09:15:10.058Z,21.37
2023-05-14T09:17:38.394Z,21.60
2023-05-14T09:20:07.684Z,21.85
2023-05-14T09:22:36.221Z,22.02
2023-05-14T09:25:10.118Z,22.16
2023-05-14T09:27:39.220Z,22.30
2023-05-14T09:30:12.777Z,22.48
2023-05-14T09:32:47.325Z,22.65
2023-05-14T09:35:23.961Z,22.73
2023-05-14T09:37:54.645Z,22.59
2023-05-14T09:40:27.783Z,22.59
2023-05-14T09:42:56.518Z,22.52
2023-05-14T09:45:27.652Z,22.71
2023-05-14T09:47:56.206Z,23.01
2023-05-14T09:50:29.385Z,23.22
2023-05-14T09:52:59.553Z,23.18
2023-05-14T09:55:28.300Z,23.22
2023-05-14T09:57:57.028Z,23.13
2023-05-14T10:00:26.507Z,22.89
2023-05-14T10:02:57.145Z,22.95
2023-05-14T10:05:27.126Z,22.93
2023-05-14T10:08:00.401Z,22.93
2023-05-14T10:10:30.704Z,22.96
2023-05-14T10:13:08.295Z,23.15
2023-05-14T10:20:01.993Z,23.27
2023-05-14T10:22:35.304Z,23.30
2023-05-14T10:25:15.834Z,23.47
2023-05-14T10:27:53.103Z,23.61
2023-05-14T10:30:30.533Z,23.71
2023-05-14T10:33:12.090Z,23.69
2023-05-14T10:36:02.591Z,23.70
2023-05-14T10:38:36.173Z,23.76
2023-05-14T10:41:13.806Z,23.83
2023-05-14T10:43:44.618Z,23.76
2023-05-14T10:46:14.390Z,23.67
2023-05-14T10:48:43.972Z,23.59
2023-05-14T10:51:13.227Z,23.56
2023-05-14T10:53:59.076Z,23.68
2023-05-14T10:56:29.601Z,23.85
2023-05-14T10:59:00.422Z,24.08
2023-05-14T11:01:29.748Z,24.29
2023-05-14T11:03:58.956Z,24.48
2023-05-14T11:06:28.505Z,24.73
2023-05-14T11:09:01.199Z,24.76
2023-05-14T11:11:34.233Z,24.70
2023-05-14T11:14:04.768Z,24.80
2023-05-14T11:16:34.671Z,25.02
2023-05-14T11:19:05.264Z,25.15
2023-05-14T11:21:33.942Z,25.14
2023-05-14T11:24:04.019Z,25.05
2023-05-14T11:26:33.578Z,25.05
2023-05-14T11:29:02.888Z,25.13
2023-05-14T11:31:31.954Z,25.08
2023-05-14T11:34:01.331Z,25.35
2023-05-14T11:36:29.895Z,25.53
2023-05-14T11:38:58.880Z,25.49
2023-05-14T11:41:28.419Z,25.36
2023-05-14T11:43:58.853Z,25.39
2023-05-14T11:46:28.890Z,25.47
2023-05-14T11:48:57.526Z,25.26
2023-05-14T11:51:26.412Z,25.13
2023-05-14T11:53:55.522Z,24.95
2023-05-14T11:56:25.366Z,24.87
2023-05-14T11:59:11.183Z,24.96
2023-05-14T12:01:39.973Z,24.92
2023-05-14T12:04:11.038Z,24.91
2023-05-14T12:06:41.594Z,25.10
2023-05-14T12:09:13.022Z,25.33
2023-05-14T12:11:42.058Z,25.44
2023-05-14T12:14:22.537Z,25.15
2023-05-14T12:16:52.064Z,25.01
2023-05-14T12:19:27.397Z,24.96
2023-05-14T12:21:56.019Z,24.85
2023-05-14T12:24:27.633Z,24.93
2023-05-14T12:26:57.711Z,24.82
2023-05-14T12:29:27.590Z,24.82
2023-05-14T12:31:59.721Z,24.77
2023-05-14T12:34:28.673Z,24.91
2023-05-14T12:36:57.241Z,25.10
2023-05-14T12:39:25.758Z,24.99
2023-05-14T12:41:56.726Z,24.66
2023-05-14T12:44:26.185Z,24.33
2023-05-14T12:46:55.625Z,24.04
2023-05-14T12:49:26.030Z,23.94
2023-05-14T12:52:04.492Z,23.95
2023-05-14T12:54:44.732Z,24.07
2023-05-14T12:57:15.462Z,24.21
2023-05-14T12:59:47.832Z,24.54
2023-05-14T13:02:20.736Z,24.83
2023-05-14T13:04:52.733Z,24.83
2023-05-14T13:07:24.896Z,24.42
2023-05-14T13:09:56.349Z,24.00
2023-05-14T13:12:28.542Z,24.03
2023-05-14T13:15:00.876Z,24.18
2023-05-14T13:17:32.639Z,24.37
2023-05-14T13:20:05.932Z,24.35
2023-05-14T13:22:41.108Z,24.26
2023-05-14T13:25:11.151Z,24.07
2023-05-14T13:27:41.520Z,23.81
2023-05-14T13:30:13.971Z,23.60
2023-05-14T13:32:46.489Z,23.60
2023-05-14T13:35:20.335Z,23.70
2023-05-14T13:37:53.680Z,23.84
2023-05-14T13:40:26.099Z,24.10
2023-05-14T13:42:57.950Z,24.42
2023-05-14T13:45:29.808Z,24.48
2023-05-14T13:48:02.943Z,24.28
2023-05-14T13:50:33.477Z,24.21
2023-05-14T13:53:14.146Z,24.43
2023-05-14T13:55:46.675Z,24.55
2023-05-14T14:04:55.096Z,25.31
2023-05-14T14:07:23.717Z,25.20
2023-05-14T14:09:52.318Z,25.17
2023-05-14T14:12:21.428Z,25.16
2023-05-14T14:14:49.970Z,25.07
2023-05-14T14:24:05.970Z,25.10
2023-05-14T14:26:33.128Z,24.91
2023-05-14T14:29:00.311Z,24.83
2023-05-14T14:31:28.224Z,24.86
2023-05-14T14:33:55.348Z,24.69
2023-05-14T14:36:22.491Z,24.57
2023-05-14T14:38:49.722Z,24.36
2023-05-14T14:41:16.998Z,24.26
2023-05-14T14:43:44.305Z,24.14
2023-05-14T14:46:11.542Z,23.81
2023-05-14T14:48:41.070Z,23.70
2023-05-14T14:51:09.363Z,23.76
2023-05-14T14:53:37.220Z,23.86
2023-05-14T14:56:05.580Z,23.93
2023-05-14T14:58:32.936Z,23.83
2023-05-14T15:01:00.770Z,23.82
2023-05-14T15:03:30.650Z,23.81
2023-05-14T15:05:58.270Z,23.62
2023-05-14T15:08:27.133Z,23.41
2023-05-14T15:10:56.243Z,23.21
2023-05-14T15:13:26.587Z,23.15
2023-05-14T15:15:54.462Z,23.09
2023-05-14T15:18:21.937Z,23.02
2023-05-14T15:20:49.733Z,22.98
2023-05-14T15:23:17.771Z,22.97
2023-05-14T15:25:46.622Z,22.92
2023-05-14T15:28:14.425Z,22.87
2023-05-14T15:30:43.095Z,22.82
2023-05-14T15:33:10.503Z,22.76
2023-05-14T15:35:37.925Z,22.65
2023-05-14T15:38:08.050Z,22.45
2023-05-14T15:40:37.698Z,22.22
2023-05-14T15:43:05.293Z,22.08
2023-05-14T15:45:32.441Z,22.02
2023-05-14T15:47:59.548Z,21.92
2023-05-14T15:50:27.156Z,21.85
2023-05-14T15:53:12.419Z,21.84
2023-05-14T15:55:41.040Z,21.82
2023-05-14T15:58:09.511Z,21.79
2023-05-14T16:00:38.213Z,21.73
2023-05-14T16:03:06.976Z,21.65
2023-05-14T16:05:35.625Z,21.65
2023-05-14T16:08:04.545Z,21.67
2023-05-14T16:10:32.929Z,21.72
2023-05-14T16:13:01.443Z,21.76
2023-05-14T16:15:29.993Z,21.78
2023-05-14T16:17:58.632Z,21.82
2023-05-14T16:20:27.293Z,21.82
2023-05-14T16:22:56.071Z,21.81
2023-05-14T16:25:24.928Z,21.80
2023-05-14T16:27:53.384Z,21.81
2023-05-14T16:30:22.040Z,21.78
2023-05-14T16:32:50.675Z,21.79
2023-05-14T16:35:19.252Z,21.73
2023-05-14T16:37:48.115Z,21.74
2023-05-14T16:40:16.866Z,21.74
2023-05-14T16:42:49.436Z,21.71
2023-05-14T16:45:18.401Z,21.64
2023-05-14T16:47:49.780Z,21.59
2023-05-14T16:50:18.482Z,21.56
2023-05-14T16:52:47.047Z,21.52
2023-05-14T16:55:16.102Z,21.48
2023-05-14T16:57:45.024Z,21.41
2023-05-14T17:00:15.485Z,21.37
2023-05-14T17:02:45.214Z,21.34
2023-05-14T17:05:17.775Z,21.28
2023-05-14T17:07:46.508Z,21.21
2023-05-14T17:10:17.688Z,21.17
2023-05-14T17:12:47.648Z,21.12
2023-05-14T17:15:14.993Z,21.04
2023-05-14T17:17:43.883Z,20.97
2023-05-14T17:20:14.159Z,20.89
2023-05-14T17:22:44.795Z,20.81
2023-05-14T17:25:13.222Z,20.73
2023-05-14T17:27:41.629Z,20.64
2023-05-14T17:30:10.990Z,20.57
2023-05-14T17:32:39.608Z,20.49
2023-05-14T17:35:14.290Z,20.43
2023-05-14T17:37:43.332Z,20.36
2023-05-14T17:40:13.811Z,20.30
2023-05-14T17:42:46.024Z,20.24
2023-05-14T17:45:15.948Z,20.16
2023-05-14T17:47:47.692Z,20.06
2023-05-14T17:50:16.844Z,20.00
2023-05-14T17:57:04.662Z,19.83
2023-05-14T17:59:36.512Z,19.74
2023-05-14T18:02:05.978Z,19.66
2023-05-14T18:04:35.995Z,19.58
2023-05-14T18:07:04.926Z,19.51
2023-05-14T18:09:33.272Z,19.47
2023-05-14T18:12:01.582Z,19.42
2023-05-14T18:14:29.979Z,19.34
2023-05-14T18:16:58.432Z,19.29
2023-05-14T18:19:27.026Z,19.21
2023-05-14T18:21:58.064Z,19.15
2023-05-14T18:24:29.197Z,19.08
2023-05-14T18:26:58.192Z,19.02
2023-05-14T18:29:26.561Z,18.96
2023-05-14T18:31:55.034Z,18.91
2023-05-14T18:34:27.378Z,18.86
2023-05-14T18:36:59.059Z,18.80
2023-05-14T18:39:29.596Z,18.71
2023-05-14T18:41:58.703Z,18.67
2023-05-14T18:44:27.530Z,18.63
2023-05-14T18:47:06.633Z,18.58
2023-05-14T18:49:39.095Z,18.53
2023-05-14T18:52:10.964Z,18.49
2023-05-14T18:54:39.425Z,18.46
2023-05-14T18:57:08.415Z,18.41
2023-05-14T18:59:37.092Z,18.37
2023-05-14T19:02:09.277Z,18.32
2023-05-14T19:04:51.157Z,18.27
2023-05-14T19:07:22.169Z,18.23
2023-05-14T19:09:50.959Z,18.19
2023-05-14T19:12:21.078Z,18.14
2023-05-14T19:14:49.574Z,18.10
2023-05-14T19:17:19.954Z,18.05
2023-05-14T19:19:49.135Z,18.00
2023-05-14T19:22:17.732Z,17.96
2023-05-14T19:24:46.068Z,17.92
2023-05-14T19:27:17.046Z,17.87
2023-05-14T19:29:45.573Z,17.81
2023-05-14T19:32:14.034Z,17.76
2023-05-14T19:34:42.624Z,17.72
2023-05-14T19:37:11.615Z,17.69
2023-05-14T19:39:40.702Z,17.66
2023-05-14T19:42:09.883Z,17.61
2023-05-14T19:44:38.934Z,17.56
2023-05-14T19:47:08.093Z,17.50
2023-05-14T19:49:37.973Z,17.46
2023-05-14T19:52:06.626Z,17.41
2023-05-14T19:54:35.500Z,17.36
2023-05-14T19:57:07.332Z,17.32
2023-05-14T19:59:36.301Z,17.27
2023-05-14T20:02:05.916Z,17.24
2023-05-14T20:04:40.324Z,17.21
2023-05-14T20:07:08.955Z,17.18
2023-05-14T20:09:39.756Z,17.17
2023-05-14T20:12:09.649Z,17.15
2023-05-14T20:14:40.974Z,17.10
2023-05-14T20:17:13.111Z,17.07
2023-05-14T20:19:42.154Z,17.04
2023-05-14T20:22:12.865Z,17.02
2023-05-14T20:24:44.520Z,17.00
2023-05-14T20:27:13.445Z,16.96
2023-05-14T20:29:42.389Z,16.93
2023-05-14T20:36:30.174Z,16.88
2023-05-14T20:39:00.733Z,16.84
2023-05-14T20:41:29.091Z,16.82
2023-05-14T20:44:00.591Z,16.80
2023-05-14T20:46:31.738Z,16.77
2023-05-14T20:49:03.020Z,16.75
2023-05-14T20:51:32.979Z,16.73
2023-05-14T20:54:02.784Z,16.72
2023-05-14T20:56:31.318Z,16.70
2023-05-14T20:59:00.505Z,16.70
2023-05-14T21:01:31.661Z,16.69
2023-05-14T21:04:01.642Z,16.67
2023-05-14T21:06:30.468Z,16.64
2023-05-14T21:08:59.206Z,16.62
2023-05-14T21:15:46.094Z,16.57
2023-05-14T21:18:14.457Z,16.56
2023-05-14T21:20:43.547Z,16.55
2023-05-14T21:23:13.136Z,16.54
2023-05-14T21:25:41.567Z,16.52
2023-05-14T21:28:10.393Z,16.50
2023-05-14T21:30:39.014Z,16.48
2023-05-14T21:33:07.971Z,16.46
2023-05-14T21:35:36.822Z,16.43
2023-05-14T21:38:05.284Z,16.41
2023-05-14T21:40:33.570Z,16.39
2023-05-14T21:43:02.086Z,16.37
2023-05-14T21:45:31.235Z,16.36
2023-05-14T21:48:00.024Z,16.34
2023-05-14T21:50:28.445Z,16.33
2023-05-14T21:52:57.931Z,16.30
2023-05-14T21:55:28.188Z,16.27
2023-05-14T21:57:57.794Z,16.24
2023-05-14T22:00:26.311Z,16.21
2023-05-14T22:02:55.725Z,16.19
2023-05-14T22:05:24.798Z,16.17
2023-05-14T22:07:53.959Z,16.13
2023-05-14T22:10:23.277Z,16.10
2023-05-14T22:12:52.203Z,16.09
2023-05-14T22:15:21.103Z,16.07
2023-05-14T22:17:50.759Z,16.05
2023-05-14T22:20:19.333Z,16.04
2023-05-14T22:22:48.029Z,16.01
2023-05-14T22:25:17.752Z,15.98
2023-05-14T22:27:46.366Z,15.96
2023-05-14T22:30:15.187Z,15.94
2023-05-14T22:32:44.069Z,15.93
2023-05-14T22:35:13.133Z,15.90
2023-05-14T22:37:42.796Z,15.86
2023-05-14T22:40:13.917Z,15.83
2023-05-14T22:42:42.295Z,15.82
2023-05-14T22:45:11.628Z,15.79
2023-05-14T22:47:41.042Z,15.76
2023-05-14T22:50:12.466Z,15.75
2023-05-14T22:52:41.766Z,15.74
2023-05-14T22:55:12.833Z,15.71
2023-05-14T22:57:44.871Z,15.69
2023-05-14T23:00:15.841Z,15.67
2023-05-14T23:02:47.913Z,15.65
2023-05-14T23:05:19.528Z,15.64
2023-05-14T23:07:50.365Z,15.61
2023-05-14T23:10:20.724Z,15.58
2023-05-14T23:12:50.795Z,15.56
2023-05-14T23:15:20.946Z,15.52
2023-05-14T23:17:52.646Z,15.50
2023-05-14T23:20:23.932Z,15.48
2023-05-14T23:22:55.901Z,15.46
2023-05-14T23:25:27.958Z,15.45
2023-05-14T23:27:58.919Z,15.42
2023-05-14T23:30:30.962Z,15.39
2023-05-14T23:33:01.466Z,15.36
2023-05-14T23:35:34.163Z,15.34
2023-05-14T23:38:06.321Z,15.34
2023-05-14T23:40:37.872Z,15.34
2023-05-14T23:43:09.345Z,15.34
2023-05-14T23:45:40.382Z,15.32
2023-05-14T23:48:10.553Z,15.30
2023-05-14T23:50:43.015Z,15.30
2023-05-14T23:53:14.904Z,15.32
